»·PEaware :: N8289A KSMX-KBFL

N8289A :: KSMX-KBFL

FLIGHT INFORMATION

Flight Status: Arrived
Operator: Privately registered:
United States
More flights under this callsign
Pilot: Brett S. (36460)
Aircraft: PIPER PA-28 CHEROKEE ARCHER
(PA28)
More flights by this aircraft type
Origin: KSMX Santa Maria Pub/Capt Hancock
United States
Destination: KBFL Meadows
United States
More flights between these airports :: More routes between these airports
Route:
File this flight plan on PilotEdge
Remarks:
Altitude:
(Current/Filed)
7,500ft
Speed:
(Current/Filed)
110kts
Departed: 10-Sep-21 02:10 PM
Arrived: 10-Sep-21 03:02 PM
Distance/Time
Traveled:
76nm/0:51
Distance/Time
To Go:
Arrived

Flight Plot

Page will automatically refresh every two minutes.


Map Options




Map Legend


Flown Route
Filed Route
Departure Airport
Arrival Airport
Navaid (VOR, NDB)
Fix

Horizontal Profiles

Position Reports

Time Latitude Longitude Heading Altitude Ground
Speed
10-Sep-21 13:55 34.901534 -120.451046 154 264ft 0kts
10-Sep-21 13:56 34.901534 -120.451046 154 264ft 0kts
10-Sep-21 13:57 34.901534 -120.451046 154 264ft 0kts
10-Sep-21 13:58 34.901533 -120.451046 154 264ft 0kts
10-Sep-21 13:59 34.901534 -120.451046 154 264ft 0kts
10-Sep-21 14:00 34.901534 -120.451046 154 264ft 0kts
10-Sep-21 14:01 34.901534 -120.451046 154 264ft 0kts
10-Sep-21 14:02 34.901534 -120.451046 154 264ft 0kts
10-Sep-21 14:03 34.900391 -120.451053 191 264ft 4kts
10-Sep-21 14:04 34.898553 -120.450267 135 264ft 14kts
10-Sep-21 14:05 34.895778 -120.446942 135 264ft 14kts
10-Sep-21 14:06 34.893846 -120.445206 180 264ft 10kts
10-Sep-21 14:07 34.893340 -120.445212 181 264ft 0kts
10-Sep-21 14:08 34.893307 -120.446496 317 264ft 18kts
10-Sep-21 14:09 34.906447 -120.462186 320 959ft 74kts
10-Sep-21 14:10 34.923413 -120.476202 4 1828ft 78kts
10-Sep-21 14:11 34.937691 -120.458492 64 2674ft 78kts
10-Sep-21 14:12 34.947721 -120.435255 63 3467ft 78kts
10-Sep-21 14:13 34.956950 -120.410855 63 4198ft 80kts
10-Sep-21 14:14 34.966676 -120.386327 60 4897ft 80kts
10-Sep-21 14:15 34.977827 -120.362204 65 5543ft 82kts
10-Sep-21 14:16 34.987939 -120.337224 59 6147ft 83kts
10-Sep-21 14:17 34.997799 -120.311461 66 6721ft 84kts
10-Sep-21 14:18 35.007385 -120.285288 67 7249ft 86kts
10-Sep-21 14:19 35.017220 -120.255657 67 7515ft 101kts
10-Sep-21 14:20 35.028087 -120.223098 70 7568ft 106kts
10-Sep-21 14:21 35.037869 -120.187877 69 7449ft 111kts
10-Sep-21 14:22 35.049680 -120.154361 67 7397ft 106kts
10-Sep-21 14:23 35.061918 -120.122363 74 7429ft 101kts
10-Sep-21 14:24 35.072926 -120.090394 66 7516ft 104kts
10-Sep-21 14:25 35.085734 -120.058671 65 7597ft 104kts
10-Sep-21 14:26 35.097789 -120.025636 68 7594ft 107kts
10-Sep-21 14:27 35.108376 -119.991196 70 7554ft 108kts
10-Sep-21 14:28 35.119697 -119.957154 66 7523ft 108kts
10-Sep-21 14:29 35.131623 -119.923419 67 7494ft 108kts
10-Sep-21 14:30 35.143620 -119.889579 68 7466ft 108kts
10-Sep-21 14:31 35.155393 -119.855632 67 7439ft 108kts
10-Sep-21 14:32 35.166937 -119.821984 67 7470ft 105kts
10-Sep-21 14:33 35.178663 -119.788870 67 7490ft 106kts
10-Sep-21 14:34 35.190320 -119.755551 65 7518ft 106kts
10-Sep-21 14:35 35.201662 -119.722180 69 7544ft 106kts
10-Sep-21 14:36 35.211691 -119.688036 68 7568ft 106kts
10-Sep-21 14:37 35.222437 -119.653863 68 7544ft 108kts
10-Sep-21 14:38 35.233350 -119.619651 69 7353ft 108kts
10-Sep-21 14:39 35.245721 -119.586443 60 7043ft 108kts
10-Sep-21 14:41 35.256788 -119.552673 67 6748ft 107kts
10-Sep-21 14:42 35.268960 -119.519668 65 6469ft 106kts
10-Sep-21 14:43 35.281596 -119.486839 64 6210ft 106kts
10-Sep-21 14:44 35.293997 -119.454198 67 5969ft 105kts
10-Sep-21 14:45 35.305420 -119.421130 64 5597ft 105kts
10-Sep-21 14:46 35.322836 -119.392786 48 5210ft 105kts
10-Sep-21 14:47 35.335595 -119.360789 62 4815ft 104kts
10-Sep-21 14:48 35.348208 -119.328904 65 4425ft 104kts
10-Sep-21 14:49 35.359661 -119.296705 68 4064ft 103kts
10-Sep-21 14:50 35.370448 -119.264206 66 3719ft 102kts
10-Sep-21 14:51 35.383022 -119.232781 61 3446ft 102kts
10-Sep-21 14:52 35.394677 -119.201716 66 3473ft 100kts
10-Sep-21 14:53 35.405379 -119.170220 68 3501ft 100kts
10-Sep-21 14:54 35.415967 -119.138515 68 3391ft 101kts
10-Sep-21 14:55 35.424615 -119.106380 74 3077ft 94kts
10-Sep-21 14:56 35.412373 -119.081352 134 2947ft 100kts
10-Sep-21 14:57 35.391889 -119.060230 137 2395ft 92kts
10-Sep-21 14:58 35.388964 -119.034941 41 1653ft 84kts
10-Sep-21 14:59 35.407899 -119.026355 326 1192ft 72kts
10-Sep-21 15:00 35.422648 -119.042891 316 771ft 72kts
10-Sep-21 15:01 35.435407 -119.058291 312 487ft 46kts
10-Sep-21 15:02 35.440336 -119.063151 36 496ft 11kts
10-Sep-21 15:03 35.437549 -119.058411 134 495ft 18kts
10-Sep-21 15:04 35.435208 -119.055589 135 492ft 9kts
10-Sep-21 15:05 35.435275 -119.053586 45 499ft 7kts
10-Sep-21 15:06 35.435715 -119.052231 176 503ft 0kts
10-Sep-21 15:06 35.435715 -119.052231 176 503ft 0kts
10-Sep-21 15:07 35.435715 -119.052231 176 503ft 0kts
10-Sep-21 15:09 35.435715 -119.052231 176 503ft 0kts
10-Sep-21 15:10 35.435715 -119.052231 176 503ft 0kts
10-Sep-21 15:11 35.435715 -119.052231 176 503ft 0kts
10-Sep-21 15:11 35.435715 -119.052231 176 503ft 0kts

Navigation Log

Ident Type
Flight plan parsing failed, navigation log unavailable